Time;durP1;ratioP1;P1;durP2;ratioP2;P2;SDS_P1;SDS_P2;PMS_P1;PMS_P2;Temp;Humidity;BMP_temperature;BMP_pressure;BME280_temperature;BME280_humidity;BME280_pressure;Samples;Min_cycle;Max_cycle;Signal;HPM_P1;HPM_P2
2023/01/24 00:00:54;;;;;;;15.10;10.67;;;;;;;1.76;100.00;102515.66;4990662;28;20488;-71
2023/01/24 00:03:21;;;;;;;19.80;11.60;;;;;;;1.81;100.00;102505.03;5000862;28;20484;-71
2023/01/24 00:05:49;;;;;;;15.30;10.83;;;;;;;1.80;100.00;102505.94;4991910;28;20483;-71
2023/01/24 00:08:19;;;;;;;17.53;10.80;;;;;;;1.79;100.00;102498.91;5004211;28;20433;-72
2023/01/24 00:10:46;;;;;;;16.90;11.03;;;;;;;1.79;100.00;102499.78;5003862;28;20483;-71
2023/01/24 00:13:15;;;;;;;16.43;10.73;;;;;;;1.73;100.00;102505.16;4999808;28;20454;-71
2023/01/24 00:15:42;;;;;;;14.13;10.27;;;;;;;1.79;100.00;102494.53;4984732;28;20567;-72
2023/01/24 00:18:09;;;;;;;16.10;11.90;;;;;;;1.74;100.00;102500.78;4987257;28;20453;-71
2023/01/24 00:20:35;;;;;;;14.73;10.93;;;;;;;1.78;100.00;102505.09;5003930;28;20471;-72
2023/01/24 00:23:02;;;;;;;19.20;11.83;;;;;;;1.81;100.00;102503.25;5000878;28;20524;-72
2023/01/24 00:25:29;;;;;;;15.23;11.00;;;;;;;1.94;100.00;102505.66;4984049;28;20516;-73
2023/01/24 00:27:55;;;;;;;17.97;11.67;;;;;;;1.72;100.00;102506.09;4987489;28;20499;-71
2023/01/24 00:30:23;;;;;;;19.37;13.17;;;;;;;1.69;100.00;102506.13;5003503;28;20510;-71
2023/01/24 00:32:50;;;;;;;18.00;11.50;;;;;;;1.73;100.00;102510.44;5001589;28;20870;-71
2023/01/24 00:35:17;;;;;;;18.70;12.23;;;;;;;1.71;100.00;102512.25;4988095;28;20511;-71
2023/01/24 00:37:44;;;;;;;17.00;11.97;;;;;;;1.71;100.00;102508.75;5002765;28;20518;-72
2023/01/24 00:40:11;;;;;;;19.30;11.97;;;;;;;1.74;100.00;102504.28;5003517;28;20444;-72
2023/01/24 00:42:38;;;;;;;19.70;12.97;;;;;;;1.70;100.00;102505.22;5002892;28;20570;-71
2023/01/24 00:45:05;;;;;;;17.50;11.03;;;;;;;1.76;100.00;102505.13;4984870;28;20441;-72
2023/01/24 00:47:33;;;;;;;17.77;11.80;;;;;;;1.54;100.00;102506.41;4984524;28;20472;-72
2023/01/24 00:50:00;;;;;;;19.57;10.83;;;;;;;1.67;100.00;102497.38;4999280;28;20456;-71
2023/01/24 00:52:27;;;;;;;18.70;11.27;;;;;;;1.78;100.00;102491.91;5002670;28;20488;-71
2023/01/24 00:54:53;;;;;;;16.97;10.80;;;;;;;1.74;100.00;102488.47;4986273;28;20495;-71
2023/01/24 00:57:21;;;;;;;19.30;11.60;;;;;;;1.73;100.00;102497.25;4988877;28;20487;-71
2023/01/24 00:59:47;;;;;;;20.97;11.47;;;;;;;1.79;100.00;102485.72;5003924;28;20953;-71
2023/01/24 01:02:14;;;;;;;20.23;12.30;;;;;;;1.82;100.00;102490.94;5001804;28;21063;-71
2023/01/24 01:04:42;;;;;;;19.83;12.97;;;;;;;1.77;100.00;102504.22;4984493;28;20445;-72
2023/01/24 01:07:09;;;;;;;19.60;13.17;;;;;;;1.85;100.00;102499.66;4983145;28;20484;-71
2023/01/24 01:09:35;;;;;;;22.97;13.10;;;;;;;1.72;100.00;102503.44;4995945;28;20456;-71
2023/01/24 01:12:02;;;;;;;20.40;12.27;;;;;;;1.79;100.00;102507.72;5002744;28;20510;-72
2023/01/24 01:14:29;;;;;;;18.27;12.50;;;;;;;1.69;100.00;102496.44;4987975;28;20570;-71
2023/01/24 01:16:55;;;;;;;18.23;11.17;;;;;;;1.78;100.00;102494.53;4983147;28;20831;-71
2023/01/24 01:19:22;;;;;;;15.50;10.07;;;;;;;1.73;100.00;102499.88;4996779;28;20448;-72
2023/01/24 01:21:50;;;;;;;15.93;10.33;;;;;;;1.82;100.00;102501.47;5002450;28;20476;-72
2023/01/24 01:24:17;;;;;;;18.27;11.60;;;;;;;1.64;100.00;102495.66;4990747;28;20457;-72
2023/01/24 01:26:44;;;;;;;15.80;11.10;;;;;;;1.68;100.00;102500.00;4982892;28;20535;-71
2023/01/24 01:29:10;;;;;;;18.93;11.23;;;;;;;1.83;100.00;102500.59;4994735;28;20444;-71
2023/01/24 01:31:38;;;;;;;15.40;10.50;;;;;;;1.72;100.00;102499.91;5002898;28;20480;-72
2023/01/24 01:34:04;;;;;;;14.40;10.67;;;;;;;1.73;100.00;102494.63;4988717;28;20457;-71
2023/01/24 01:36:31;;;;;;;14.73;8.80;;;;;;;1.78;100.00;102499.81;4996505;28;20475;-72
2023/01/24 01:38:59;;;;;;;14.63;11.10;;;;;;;1.56;100.00;102505.47;4997544;28;20440;-71
2023/01/24 01:41:26;;;;;;;9.93;7.80;;;;;;;1.77;100.00;102505.97;5001962;28;20508;-71
2023/01/24 01:46:39;;;;;;;10.80;7.30;;;;;;;1.83;100.00;102492.69;5002590;28;20532;-71
2023/01/24 01:49:06;;;;;;;10.20;7.00;;;;;;;1.78;100.00;102490.13;5001688;28;20444;-71
2023/01/24 01:51:45;;;;;;;9.50;7.13;;;;;;;1.67;100.00;102490.34;5002134;28;20502;-70
2023/01/24 01:54:16;;;;;;;9.10;5.90;;;;;;;1.81;100.00;102487.44;4994962;28;20453;-71
2023/01/24 01:56:45;;;;;;;9.90;7.20;;;;;;;1.75;100.00;102497.22;4999110;28;20484;-72
2023/01/24 01:59:16;;;;;;;9.97;7.50;;;;;;;1.78;100.00;102494.53;4997437;28;20444;-71
2023/01/24 02:01:43;;;;;;;10.93;8.70;;;;;;;1.66;100.00;102498.28;5001661;28;20522;-71
2023/01/24 02:04:15;;;;;;;11.40;7.60;;;;;;;1.69;100.00;102493.81;4992114;28;20551;-71
2023/01/24 02:06:49;;;;;;;10.20;6.93;;;;;;;1.60;100.00;102493.97;4998292;28;20455;-72
2023/01/24 02:09:21;;;;;;;12.33;8.00;;;;;;;1.66;100.00;102493.00;4997858;28;20436;-71
2023/01/24 02:11:49;;;;;;;12.60;7.73;;;;;;;1.57;100.00;102496.66;4993591;28;20512;-71
2023/01/24 02:17:03;;;;;;;10.47;8.10;;;;;;;1.57;100.00;102483.47;4999791;28;20527;-71
2023/01/24 02:19:45;;;;;;;9.83;6.20;;;;;;;1.72;100.00;102474.44;5003147;28;20440;-72
2023/01/24 02:22:16;;;;;;;8.50;6.00;;;;;;;1.68;100.00;102478.91;4984624;28;20484;-71
2023/01/24 02:24:49;;;;;;;11.70;6.80;;;;;;;1.60;100.00;102480.81;4983308;28;20899;-72
2023/01/24 02:27:17;;;;;;;10.03;7.00;;;;;;;1.57;100.00;102470.31;4982847;28;20878;-71
2023/01/24 02:29:44;;;;;;;10.10;7.57;;;;;;;1.53;100.00;102478.28;4993663;28;20495;-72
2023/01/24 02:32:12;;;;;;;10.43;7.10;;;;;;;1.73;100.00;102481.44;5002138;28;20459;-71
2023/01/24 02:34:39;;;;;;;12.63;8.67;;;;;;;1.55;100.00;102482.66;4990662;28;20468;-71
2023/01/24 02:37:10;;;;;;;11.90;6.90;;;;;;;1.62;100.00;102480.78;4983028;28;20469;-72
2023/01/24 02:39:44;;;;;;;9.43;6.90;;;;;;;1.60;100.00;102485.22;4991422;28;20451;-71
2023/01/24 02:42:13;;;;;;;12.03;8.50;;;;;;;1.67;100.00;102474.50;4989435;28;20488;-71
2023/01/24 02:44:46;;;;;;;11.47;7.37;;;;;;;1.57;100.00;102472.94;4988828;28;20518;-71
2023/01/24 02:47:12;;;;;;;10.10;7.73;;;;;;;1.56;100.00;102475.59;4985470;28;20479;-71
2023/01/24 02:49:39;;;;;;;11.60;7.30;;;;;;;1.54;100.00;102472.13;5001990;28;20451;-72
2023/01/24 02:54:52;;;;;;;9.40;8.03;;;;;;;1.55;100.00;102476.53;5002011;28;20443;-71
2023/01/24 03:00:06;;;;;;;7.93;6.50;;;;;;;1.55;100.00;102469.47;5000718;28;20448;-71
2023/01/24 03:02:32;;;;;;;9.70;6.83;;;;;;;1.50;100.00;102463.41;4985453;28;20985;-72
2023/01/24 03:04:59;;;;;;;12.20;8.30;;;;;;;1.62;100.00;102465.81;4990628;28;20444;-71
2023/01/24 03:07:26;;;;;;;10.80;6.93;;;;;;;1.63;100.00;102466.69;5005530;28;20546;-72
2023/01/24 03:09:53;;;;;;;9.63;6.70;;;;;;;1.59;100.00;102457.09;5000897;28;20487;-72
2023/01/24 03:34:32;;;;;;;11.07;7.63;;;;;;;1.61;100.00;102452.66;5004482;28;20447;-72
2023/01/24 03:36:59;;;;;;;10.00;7.17;;;;;;;1.66;100.00;102449.03;5003379;28;20507;-71
2023/01/24 03:42:10;;;;;;;11.07;7.73;;;;;;;1.80;100.00;102450.53;5003444;28;20491;-71
2023/01/24 03:44:37;;;;;;;9.40;7.67;;;;;;;1.72;100.00;102453.34;5004285;28;21206;-74
2023/01/24 03:47:05;;;;;;;10.90;7.20;;;;;;;1.67;100.00;102449.91;5004586;28;20555;-72
2023/01/24 03:52:26;;;;;;;11.17;7.80;;;;;;;1.66;100.00;102458.72;5003952;28;20554;-71
2023/01/24 03:54:53;;;;;;;11.40;7.40;;;;;;;1.58;100.00;102455.34;5004765;28;20544;-71
2023/01/24 03:57:20;;;;;;;10.90;8.23;;;;;;;1.48;100.00;102446.75;4997942;28;20509;-72
2023/01/24 03:59:46;;;;;;;12.80;8.40;;;;;;;1.49;100.00;102457.28;4993451;28;21007;-71
2023/01/24 04:02:14;;;;;;;11.30;8.33;;;;;;;1.49;100.00;102459.91;5002207;28;21099;-71
2023/01/24 04:07:25;;;;;;;13.20;8.83;;;;;;;1.58;100.00;102465.88;4985331;28;20665;-72
2023/01/24 04:09:51;;;;;;;11.00;8.20;;;;;;;1.48;100.00;102455.53;5001378;28;20475;-71
2023/01/24 04:12:18;;;;;;;15.83;9.17;;;;;;;1.56;100.00;102457.16;5003629;28;20479;-72
2023/01/24 04:14:45;;;;;;;14.03;8.97;;;;;;;1.52;100.00;102450.19;4989049;28;20880;-71
2023/01/24 04:17:12;;;;;;;11.60;7.90;;;;;;;1.45;100.00;102458.22;4993437;28;20534;-71
2023/01/24 04:19:40;;;;;;;11.57;7.87;;;;;;;1.46;100.00;102449.41;5000324;28;20449;-72
2023/01/24 04:22:06;;;;;;;12.93;9.57;;;;;;;1.38;100.00;102456.59;4983984;28;20540;-72
2023/01/24 04:24:33;;;;;;;11.83;8.13;;;;;;;1.35;100.00;102456.63;4986088;28;20530;-71
2023/01/24 04:27:00;;;;;;;14.03;9.20;;;;;;;1.46;100.00;102459.97;4989368;28;20488;-71
2023/01/24 04:29:26;;;;;;;11.37;8.47;;;;;;;1.38;100.00;102455.72;5004511;28;20463;-71
2023/01/24 04:31:53;;;;;;;14.03;9.53;;;;;;;1.40;100.00;102472.38;5003320;28;20510;-71
2023/01/24 04:34:20;;;;;;;15.80;10.07;;;;;;;1.40;100.00;102464.47;4985391;28;20480;-71
2023/01/24 04:36:48;;;;;;;12.87;9.23;;;;;;;1.51;100.00;102465.13;4988608;28;20546;-73
2023/01/24 04:39:14;;;;;;;11.53;7.80;;;;;;;1.50;100.00;102455.50;5004045;28;20436;-72
2023/01/24 04:41:41;;;;;;;12.57;9.37;;;;;;;1.37;100.00;102452.22;5003032;28;20479;-71
2023/01/24 04:44:08;;;;;;;11.20;8.07;;;;;;;1.48;100.00;102455.53;5003082;28;20484;-72
2023/01/24 04:46:35;;;;;;;13.17;9.40;;;;;;;1.44;100.00;102456.50;5003017;28;20554;-72
2023/01/24 04:49:01;;;;;;;13.83;9.17;;;;;;;1.42;100.00;102452.97;5003314;28;20444;-71
2023/01/24 04:51:28;;;;;;;12.60;8.90;;;;;;;1.32;100.00;102461.97;4984128;28;20524;-71
2023/01/24 04:53:56;;;;;;;11.43;9.03;;;;;;;1.38;100.00;102448.69;4994340;28;20558;-71
2023/01/24 04:56:23;;;;;;;14.57;10.20;;;;;;;1.35;100.00;102448.72;5002748;28;21106;-72
2023/01/24 04:58:50;;;;;;;12.03;8.97;;;;;;;1.42;100.00;102446.84;5001285;28;20448;-71
2023/01/24 05:01:16;;;;;;;14.30;9.20;;;;;;;1.44;100.00;102450.31;5001240;28;20518;-71
2023/01/24 05:03:43;;;;;;;11.53;8.60;;;;;;;1.41;100.00;102451.25;4997799;28;20488;-71
2023/01/24 05:06:10;;;;;;;11.90;8.30;;;;;;;1.53;100.00;102452.81;4994296;28;20479;-71
2023/01/24 05:08:36;;;;;;;11.90;8.70;;;;;;;1.40;100.00;102460.06;5001950;28;20467;-71
2023/01/24 05:11:05;;;;;;;13.40;8.60;;;;;;;1.49;100.00;102464.28;5002361;28;20530;-71
2023/01/24 05:13:32;;;;;;;13.73;9.50;;;;;;;1.38;100.00;102464.50;4997007;28;20453;-71
2023/01/24 05:15:58;;;;;;;13.33;9.97;;;;;;;1.46;100.00;102464.38;4981845;28;20480;-72
2023/01/24 05:18:25;;;;;;;13.40;9.30;;;;;;;1.45;100.00;102458.22;4997120;28;20453;-72
2023/01/24 05:20:52;;;;;;;13.90;9.63;;;;;;;1.35;100.00;102466.31;4998878;28;20515;-72
2023/01/24 05:23:18;;;;;;;13.50;9.20;;;;;;;1.38;100.00;102464.50;4992671;28;20484;-71
2023/01/24 05:25:47;;;;;;;16.97;9.83;;;;;;;1.36;100.00;102465.44;4986135;28;20475;-71
2023/01/24 05:28:15;;;;;;;13.90;8.93;;;;;;;1.33;100.00;102468.09;5002153;28;20460;-71
2023/01/24 05:30:42;;;;;;;11.80;10.00;;;;;;;1.18;100.00;102470.13;5001881;28;20538;-71
2023/01/24 05:33:09;;;;;;;11.70;8.93;;;;;;;1.22;100.00;102471.78;5001633;28;20459;-69
2023/01/24 05:35:35;;;;;;;14.40;10.43;;;;;;;1.29;100.00;102475.19;4999603;28;20467;-70
2023/01/24 05:38:02;;;;;;;13.87;9.60;;;;;;;1.30;100.00;102474.28;5001455;28;20889;-70
2023/01/24 05:40:29;;;;;;;13.77;9.10;;;;;;;1.21;100.00;102480.59;5002384;28;20526;-70
2023/01/24 05:42:55;;;;;;;11.23;9.13;;;;;;;1.15;100.00;102485.97;5001064;28;20460;-70
2023/01/24 05:45:23;;;;;;;12.67;8.77;;;;;;;1.23;100.00;102478.81;4994337;28;20476;-70
2023/01/24 05:47:50;;;;;;;12.93;9.03;;;;;;;1.32;100.00;102477.78;4993940;28;20444;-70
2023/01/24 05:50:17;;;;;;;13.80;9.57;;;;;;;1.20;100.00;102470.06;5000304;28;20452;-70
2023/01/24 05:52:44;;;;;;;12.90;9.00;;;;;;;1.16;100.00;102482.41;5000614;28;20479;-70
2023/01/24 05:55:10;;;;;;;12.93;8.00;;;;;;;1.78;100.00;102484.84;4991652;28;20498;-70
2023/01/24 05:57:37;;;;;;;13.50;9.17;;;;;;;2.09;100.00;102486.03;4993251;28;20463;-70
2023/01/24 06:00:05;;;;;;;11.33;9.10;;;;;;;1.58;100.00;102484.34;4986541;28;20901;-71
2023/01/24 06:02:33;;;;;;;12.87;9.87;;;;;;;1.38;100.00;102495.25;4992620;28;20468;-70
2023/01/24 06:04:59;;;;;;;15.23;10.33;;;;;;;1.33;100.00;102489.19;4996664;28;20495;-72
2023/01/24 06:07:26;;;;;;;13.40;9.50;;;;;;;1.41;100.00;102495.22;4989145;28;20537;-71
2023/01/24 06:09:53;;;;;;;15.10;10.50;;;;;;;1.26;100.00;102494.56;5000895;28;20445;-72
2023/01/24 06:12:19;;;;;;;14.80;9.23;;;;;;;1.19;100.00;102500.81;4998698;28;20485;-70
2023/01/24 06:14:46;;;;;;;11.53;9.07;;;;;;;1.17;100.00;102507.03;5001282;28;20455;-71
2023/01/24 06:17:13;;;;;;;13.17;9.70;;;;;;;1.33;100.00;102505.88;5001966;28;20523;-70
2023/01/24 06:19:42;;;;;;;11.17;9.37;;;;;;;1.11;100.00;102508.88;4984917;28;20484;-70
2023/01/24 06:22:17;;;;;;;9.50;7.93;;;;;;;1.18;100.00;102517.53;4981638;28;20477;-70
2023/01/24 06:24:44;;;;;;;12.63;9.30;;;;;;;1.16;100.00;102515.81;4998293;28;20522;-70
2023/01/24 06:27:12;;;;;;;12.20;9.33;;;;;;;1.17;100.00;102512.28;5000979;28;20479;-70
2023/01/24 06:29:39;;;;;;;11.50;8.90;;;;;;;1.28;100.00;102511.19;5004100;28;20498;-70
2023/01/24 06:32:14;;;;;;;12.13;9.07;;;;;;;1.19;100.00;102516.63;5005598;28;20475;-70
2023/01/24 06:35:03;;;;;;;13.27;9.70;;;;;;;1.25;100.00;102516.53;5005794;28;20521;-71
2023/01/24 06:37:33;;;;;;;14.10;9.50;;;;;;;1.17;100.00;102517.56;4995568;28;20475;-72
2023/01/24 06:40:00;;;;;;;11.37;8.37;;;;;;;1.20;100.00;102515.75;5006194;28;20548;-70
2023/01/24 06:42:28;;;;;;;13.37;10.97;;;;;;;1.20;100.00;102515.75;4999431;28;20483;-72
2023/01/24 06:44:54;;;;;;;16.20;9.93;;;;;;;1.30;100.00;102521.72;4997288;28;20549;-71
2023/01/24 06:47:23;;;;;;;13.37;10.23;;;;;;;1.21;100.00;102521.88;5005207;28;20488;-71
2023/01/24 06:49:50;;;;;;;18.50;11.60;;;;;;;1.24;100.00;102521.84;5006137;28;20464;-71
2023/01/24 06:52:18;;;;;;;15.53;11.43;;;;;;;1.15;100.00;102527.22;5003974;28;20512;-70
2023/01/24 06:54:45;;;;;;;13.70;9.50;;;;;;;1.22;100.00;102523.63;5005541;28;20452;-71
2023/01/24 06:57:11;;;;;;;12.60;8.83;;;;;;;1.23;100.00;102531.53;5004550;28;20472;-71
2023/01/24 06:59:38;;;;;;;12.47;9.30;;;;;;;1.14;100.00;102531.63;5005198;28;20435;-72
2023/01/24 07:02:05;;;;;;;14.40;9.73;;;;;;;1.26;100.00;102531.44;5004848;28;20534;-71
2023/01/24 07:04:31;;;;;;;15.10;12.07;;;;;;;1.11;100.00;102534.31;5004911;28;20909;-71
2023/01/24 07:06:58;;;;;;;12.27;9.97;;;;;;;1.25;100.00;102537.63;5004468;28;20484;-70
2023/01/24 07:09:26;;;;;;;19.20;10.40;;;;;;;1.31;100.00;102539.28;5005798;28;20432;-71
2023/01/24 07:11:57;;;;;;;13.57;10.70;;;;;;;1.19;100.00;102540.34;5003612;28;20475;-71
2023/01/24 07:14:24;;;;;;;13.43;9.97;;;;;;;1.04;100.00;102541.47;5004569;28;20444;-70
2023/01/24 07:16:51;;;;;;;15.10;10.80;;;;;;;0.98;100.00;102541.53;5004152;28;20487;-71
2023/01/24 07:19:21;;;;;;;13.83;10.17;;;;;;;1.11;100.00;102539.59;5005471;28;20433;-71
2023/01/24 07:21:48;;;;;;;19.30;10.60;;;;;;;1.07;100.00;102546.66;5003418;28;20490;-71
2023/01/24 07:24:17;;;;;;;13.90;10.50;;;;;;;1.13;100.00;102541.31;5004895;28;20499;-71
2023/01/24 07:26:48;;;;;;;15.80;10.30;;;;;;;1.05;100.00;102543.19;5003884;28;20479;-71
2023/01/24 07:29:15;;;;;;;13.60;11.10;;;;;;;0.93;100.00;102551.28;5004719;28;20436;-71
2023/01/24 07:31:41;;;;;;;12.77;9.07;;;;;;;1.12;100.00;102543.97;5004463;28;20511;-71
2023/01/24 07:34:08;;;;;;;15.30;10.10;;;;;;;1.09;100.00;102550.16;5004705;28;20456;-72
2023/01/24 07:36:35;;;;;;;14.23;10.00;;;;;;;1.27;100.00;102553.41;5003455;28;20483;-71
2023/01/24 07:39:02;;;;;;;15.00;11.10;;;;;;;1.12;100.00;102557.16;5005201;28;20440;-71
2023/01/24 07:41:28;;;;;;;15.33;10.60;;;;;;;1.18;100.00;102561.44;5003162;28;21008;-71
2023/01/24 07:43:57;;;;;;;16.33;11.80;;;;;;;1.15;100.00;102554.47;5003453;28;20969;-71
2023/01/24 07:46:24;;;;;;;13.90;10.37;;;;;;;1.03;100.00;102570.47;4991896;28;20508;-71
2023/01/24 07:48:51;;;;;;;12.13;8.43;;;;;;;1.11;100.00;102564.19;5003367;28;20797;-71
2023/01/24 07:51:17;;;;;;;12.40;9.63;;;;;;;1.10;100.00;102567.69;5002617;28;20529;-71
2023/01/24 07:53:44;;;;;;;12.87;9.27;;;;;;;1.26;100.00;102557.78;4998195;28;20488;-71
2023/01/24 07:56:11;;;;;;;10.87;7.93;;;;;;;1.20;100.00;102565.81;4998126;28;20489;-71
2023/01/24 07:58:37;;;;;;;12.00;9.07;;;;;;;1.23;100.00;102559.59;4998483;28;20484;-71
2023/01/24 08:01:06;;;;;;;12.30;9.13;;;;;;;1.14;100.00;102571.16;5003690;28;20479;-71
2023/01/24 08:03:33;;;;;;;13.10;9.83;;;;;;;1.11;100.00;102568.56;4996164;28;20464;-71
2023/01/24 08:06:00;;;;;;;13.10;8.90;;;;;;;1.06;100.00;102565.13;5000687;28;20487;-71
2023/01/24 08:08:26;;;;;;;12.23;9.00;;;;;;;1.15;100.00;102559.75;4988968;28;20441;-71
2023/01/24 08:10:53;;;;;;;11.43;7.83;;;;;;;1.28;100.00;102570.94;4984915;28;20568;-72
2023/01/24 08:13:21;;;;;;;10.50;8.23;;;;;;;1.13;100.00;102570.28;5000528;28;20459;-72
2023/01/24 08:15:48;;;;;;;12.17;7.10;;;;;;;1.31;100.00;102571.78;5002058;28;21005;-71
2023/01/24 08:18:17;;;;;;;12.60;8.30;;;;;;;1.13;100.00;102577.34;4984617;28;21144;-72
2023/01/24 08:20:44;;;;;;;10.83;7.67;;;;;;;1.28;100.00;102574.44;4984147;28;20473;-71
2023/01/24 08:23:11;;;;;;;10.07;8.60;;;;;;;1.20;100.00;102572.81;4988870;28;20488;-71
2023/01/24 08:25:37;;;;;;;10.37;7.80;;;;;;;1.38;100.00;102572.56;4983830;28;20485;-71
2023/01/24 08:28:04;;;;;;;11.57;8.10;;;;;;;1.33;100.00;102574.38;4983478;28;20467;-71
2023/01/24 08:30:31;;;;;;;10.57;8.50;;;;;;;1.22;100.00;102573.69;5001045;28;20475;-72
2023/01/24 08:33:01;;;;;;;8.90;7.43;;;;;;;1.32;100.00;102583.22;5003670;28;21262;-72
2023/01/24 08:35:30;;;;;;;11.00;7.80;;;;;;;1.28;100.00;102574.44;4999610;28;21174;-72
2023/01/24 08:37:57;;;;;;;12.00;7.63;;;;;;;1.22;100.00;102584.25;4984021;28;20499;-71
2023/01/24 08:40:24;;;;;;;11.20;7.10;;;;;;;1.37;100.00;102593.66;4999630;28;20448;-72
2023/01/24 08:42:51;;;;;;;8.57;6.67;;;;;;;1.42;100.00;102605.84;4999632;28;20456;-71
2023/01/24 08:45:18;;;;;;;9.53;7.10;;;;;;;1.36;100.00;102598.06;5000485;28;20496;-71
2023/01/24 08:47:44;;;;;;;8.93;6.50;;;;;;;1.30;100.00;102587.59;5003266;28;20447;-71
2023/01/24 08:50:14;;;;;;;7.60;6.80;;;;;;;1.24;100.00;102592.97;4992167;28;20517;-72
2023/01/24 08:52:42;;;;;;;9.13;6.67;;;;;;;1.26;100.00;102593.81;5001071;28;20488;-72
2023/01/24 08:55:10;;;;;;;8.80;6.90;;;;;;;1.47;100.00;102603.16;5002370;28;20498;-71
2023/01/24 08:57:36;;;;;;;9.23;7.20;;;;;;;1.34;100.00;102607.75;5002110;28;21036;-71
2023/01/24 09:00:04;;;;;;;14.93;8.23;;;;;;;1.36;100.00;102597.19;5003419;28;20675;-73
2023/01/24 09:02:32;;;;;;;8.60;6.10;;;;;;;1.37;100.00;102602.47;5003221;28;20483;-72
2023/01/24 09:04:58;;;;;;;11.00;7.40;;;;;;;1.33;100.00;102607.78;5002249;28;20519;-71
2023/01/24 09:07:25;;;;;;;9.60;7.60;;;;;;;1.37;100.00;102604.19;5002625;28;20549;-71
2023/01/24 09:09:53;;;;;;;11.93;7.20;;;;;;;1.52;100.00;102605.75;5002974;28;20502;-72
2023/01/24 09:12:20;;;;;;;10.67;8.30;;;;;;;1.39;100.00;102616.47;5000439;28;20487;-72
2023/01/24 09:14:47;;;;;;;10.00;7.60;;;;;;;1.40;100.00;102615.56;5003014;28;20486;-72
2023/01/24 09:17:13;;;;;;;10.73;8.27;;;;;;;1.50;100.00;102611.91;5002184;28;20526;-72
2023/01/24 09:19:40;;;;;;;10.80;8.30;;;;;;;1.47;100.00;102608.44;5002480;28;20535;-72
2023/01/24 09:22:07;;;;;;;12.00;7.63;;;;;;;1.50;100.00;102614.53;5001858;28;20480;-71
2023/01/24 09:24:34;;;;;;;10.80;7.80;;;;;;;1.50;100.00;102606.63;5002902;28;21086;-72
2023/01/24 09:27:02;;;;;;;10.00;7.33;;;;;;;1.41;100.00;102608.56;5001189;28;20538;-72
2023/01/24 09:29:29;;;;;;;10.03;6.80;;;;;;;1.43;100.00;102609.38;5002430;28;20456;-71
2023/01/24 09:31:55;;;;;;;10.07;8.00;;;;;;;1.49;100.00;102614.56;5002238;28;20507;-72
2023/01/24 09:34:22;;;;;;;10.17;8.03;;;;;;;1.49;100.00;102617.19;5002080;28;20452;-72
2023/01/24 09:36:49;;;;;;;13.10;8.70;;;;;;;1.58;100.00;102616.16;5002215;28;20502;-72
2023/01/24 09:39:16;;;;;;;11.20;7.90;;;;;;;1.79;100.00;102621.13;5002545;28;20468;-72
2023/01/24 09:41:52;;;;;;;10.93;7.97;;;;;;;1.65;100.00;102613.44;5001066;28;20817;-73
2023/01/24 09:44:23;;;;;;;9.70;7.43;;;;;;;1.66;100.00;102620.44;5002340;28;20471;-72
2023/01/24 09:46:53;;;;;;;10.07;8.30;;;;;;;1.72;100.00;102622.13;4985449;28;20473;-73
2023/01/24 09:49:25;;;;;;;13.40;9.20;;;;;;;1.63;100.00;102622.25;5001292;28;20912;-72
2023/01/24 09:51:54;;;;;;;9.97;7.60;;;;;;;1.61;100.00;102621.41;5001400;28;20494;-72
2023/01/24 09:54:30;;;;;;;10.80;8.00;;;;;;;1.49;100.00;102617.19;5001946;28;20453;-72
2023/01/24 09:56:57;;;;;;;11.70;9.60;;;;;;;1.59;100.00;102621.41;5000187;28;20483;-72
2023/01/24 09:59:33;;;;;;;10.10;7.50;;;;;;;1.68;100.00;102625.69;5002343;28;20947;-72
2023/01/24 10:02:00;;;;;;;10.93;8.53;;;;;;;1.57;100.00;102620.59;5001980;28;20518;-72
2023/01/24 10:04:32;;;;;;;11.87;7.80;;;;;;;1.64;100.00;102627.50;4995529;28;20453;-71
2023/01/24 10:07:14;;;;;;;12.37;8.67;;;;;;;1.52;100.00;102621.56;4997252;28;20510;-71
2023/01/24 10:09:53;;;;;;;10.30;7.90;;;;;;;1.48;100.00;102623.38;5002395;28;20476;-71
2023/01/24 10:12:30;;;;;;;10.50;6.60;;;;;;;1.56;100.00;102623.25;4999768;28;20480;-71
2023/01/24 10:15:08;;;;;;;8.60;6.70;;;;;;;1.48;100.00;102621.59;5002097;28;20443;-71
2023/01/24 10:17:48;;;;;;;8.07;6.50;;;;;;;1.44;100.00;102621.66;4982579;28;20531;-71
2023/01/24 10:20:20;;;;;;;7.83;5.53;;;;;;;1.60;100.00;102622.31;4981812;28;20436;-72
2023/01/24 10:23:01;;;;;;;8.97;6.87;;;;;;;1.46;100.00;102618.13;4982866;28;20456;-71
2023/01/24 10:25:30;;;;;;;8.40;5.93;;;;;;;1.60;100.00;102619.69;4983850;28;20898;-71
2023/01/24 10:27:58;;;;;;;8.07;6.60;;;;;;;1.65;100.00;102615.16;5001860;28;20459;-72
2023/01/24 10:30:32;;;;;;;7.63;6.27;;;;;;;1.77;100.00;102627.28;5001890;28;20468;-71
2023/01/24 10:33:02;;;;;;;8.37;6.47;;;;;;;1.55;100.00;102622.38;5001533;28;20447;-71
2023/01/24 10:35:32;;;;;;;8.10;7.20;;;;;;;1.64;100.00;102616.94;5001275;28;20510;-71
2023/01/24 10:38:01;;;;;;;11.20;6.67;;;;;;;1.68;100.00;102616.03;5002383;28;20436;-71
2023/01/24 10:40:28;;;;;;;10.40;8.57;;;;;;;1.45;100.00;102611.09;5001161;28;21051;-71
2023/01/24 10:42:55;;;;;;;9.27;7.60;;;;;;;1.55;100.00;102616.25;5001461;28;20518;-71
2023/01/24 10:45:36;;;;;;;11.00;8.27;;;;;;;1.55;100.00;102613.59;5001217;28;20580;-71
2023/01/24 10:48:07;;;;;;;10.33;7.70;;;;;;;1.76;100.00;102601.84;5001257;28;20448;-71
2023/01/24 10:50:35;;;;;;;9.70;7.67;;;;;;;2.09;100.00;102594.22;5001673;28;20511;-71
2023/01/24 10:53:13;;;;;;;12.63;7.83;;;;;;;1.80;100.00;102598.22;5001497;28;20550;-71
2023/01/24 10:55:40;;;;;;;11.10;8.03;;;;;;;1.59;100.00;102602.97;5000466;28;21027;-71
2023/01/24 10:58:20;;;;;;;10.43;8.03;;;;;;;1.72;100.00;102592.22;5001656;28;20507;-72
2023/01/24 11:00:56;;;;;;;13.23;8.70;;;;;;;1.55;100.00;102595.16;5001901;28;20574;-71
2023/01/24 11:03:25;;;;;;;10.90;8.77;;;;;;;1.57;100.00;102599.50;5001241;28;20531;-71
2023/01/24 11:05:54;;;;;;;9.63;7.90;;;;;;;1.68;100.00;102591.41;5001134;28;20484;-71
2023/01/24 11:08:22;;;;;;;10.47;8.90;;;;;;;1.53;100.00;102589.91;5002115;28;20432;-71
2023/01/24 11:10:53;;;;;;;10.23;7.70;;;;;;;1.83;100.00;102593.78;5000912;28;20502;-71
2023/01/24 11:13:27;;;;;;;12.30;9.80;;;;;;;1.61;100.00;102595.03;5000303;28;21048;-71
2023/01/24 11:16:00;;;;;;;10.23;7.87;;;;;;;1.86;100.00;102595.50;5002456;28;20529;-71
2023/01/24 11:18:28;;;;;;;10.90;7.00;;;;;;;1.84;100.00;102592.91;5005119;28;20436;-71
2023/01/24 11:21:06;;;;;;;9.13;7.50;;;;;;;1.68;100.00;102592.28;5005024;28;20567;-71
2023/01/24 11:23:33;;;;;;;9.83;7.43;;;;;;;1.87;100.00;102591.97;5004553;28;20483;-71
2023/01/24 11:26:02;;;;;;;11.53;8.43;;;;;;;2.08;100.00;102590.69;5004065;28;20550;-71
2023/01/24 11:28:30;;;;;;;9.57;7.97;;;;;;;2.17;100.00;102587.00;5005089;28;20526;-71
2023/01/24 11:31:01;;;;;;;9.73;8.00;;;;;;;1.85;100.00;102586.69;5004802;28;20956;-70
2023/01/24 11:33:57;;;;;;;9.70;7.70;;;;;;;1.93;100.00;102575.13;5003919;28;20452;-71
2023/01/24 11:36:34;;;;;;;9.80;7.23;;;;;;;2.23;100.00;102582.50;4982726;28;20479;-71
2023/01/24 11:39:03;;;;;;;9.57;7.30;;;;;;;1.85;100.00;102578.78;5005425;28;20465;-71
2023/01/24 11:41:33;;;;;;;10.17;7.60;;;;;;;1.69;100.00;102578.19;5003603;28;20471;-71
2023/01/24 11:44:46;;;;;;;8.90;6.57;;;;;;;1.67;100.00;102577.34;5004250;28;20483;-71
2023/01/24 11:47:16;;;;;;;9.57;6.53;;;;;;;1.89;100.00;102566.41;4924212;29;20491;-71
2023/01/24 11:50:20;;;;;;;9.67;7.97;;;;;;;1.83;100.00;102561.25;4925103;29;20472;-71
2023/01/24 11:53:03;;;;;;;9.07;6.93;;;;;;;1.93;100.00;102559.31;4916571;29;20491;-71
2023/01/24 11:55:37;;;;;;;11.17;8.40;;;;;;;1.71;100.00;102561.47;4923606;29;20485;-71
2023/01/24 11:58:20;;;;;;;10.27;8.00;;;;;;;1.77;100.00;102559.63;4924460;29;20810;-70
2023/01/24 12:00:52;;;;;;;11.90;8.33;;;;;;;1.85;100.00;102554.19;4924730;29;20888;-71
2023/01/24 12:03:49;;;;;;;10.90;8.10;;;;;;;1.77;100.00;102550.81;4924473;29;20451;-71
2023/01/24 12:06:23;;;;;;;11.97;9.17;;;;;;;1.66;100.00;102548.38;4924051;29;20639;-71